createdAt,value
2022-12-29T00:02:01.577Z,2.95
2022-12-29T00:04:28.304Z,1.83
2022-12-29T00:06:56.719Z,3.60
2022-12-29T00:09:24.442Z,4.32
2022-12-29T00:11:51.163Z,2.85
2022-12-29T00:14:37.439Z,3.53
2022-12-29T00:17:04.250Z,4.22
2022-12-29T00:19:49.470Z,3.97
2022-12-29T00:22:34.699Z,2.70
2022-12-29T00:28:07.684Z,2.40
2022-12-29T00:30:54.652Z,2.90
2022-12-29T00:33:41.279Z,1.60
2022-12-29T00:36:35.706Z,1.73
2022-12-29T00:39:31.761Z,2.13
2022-12-29T00:42:30.587Z,1.80
2022-12-29T00:45:01.233Z,4.28
2022-12-29T00:47:29.937Z,2.10
2022-12-29T00:49:56.493Z,1.95
2022-12-29T00:52:23.218Z,2.50
2022-12-29T00:54:49.795Z,9.02
2022-12-29T00:57:16.970Z,56.28
2022-12-29T00:59:46.181Z,44.55
2022-12-29T01:02:13.000Z,45.00
2022-12-29T01:04:40.234Z,44.67
2022-12-29T01:07:07.178Z,40.20
2022-12-29T01:09:52.153Z,32.17
2022-12-29T01:12:38.927Z,30.55
2022-12-29T01:15:06.496Z,30.77
2022-12-29T01:17:33.754Z,24.83
2022-12-29T01:20:01.969Z,22.50
2022-12-29T01:22:28.837Z,22.17
2022-12-29T01:24:56.095Z,18.73
2022-12-29T01:27:22.794Z,19.05
2022-12-29T01:29:49.360Z,16.75
2022-12-29T01:32:16.822Z,15.95
2022-12-29T01:34:44.767Z,15.95
2022-12-29T01:37:11.608Z,14.55
2022-12-29T01:39:38.564Z,12.57
2022-12-29T01:42:05.176Z,12.32
2022-12-29T01:44:59.173Z,12.02
2022-12-29T01:47:26.330Z,10.95
2022-12-29T01:49:55.624Z,10.13
2022-12-29T01:52:23.878Z,9.73
2022-12-29T01:54:52.852Z,8.32
2022-12-29T01:57:23.818Z,8.55
2022-12-29T01:59:55.189Z,7.97
2022-12-29T02:02:22.059Z,8.50
2022-12-29T02:04:49.553Z,8.05
2022-12-29T02:07:20.567Z,6.25
2022-12-29T02:09:49.183Z,6.75
2022-12-29T02:12:16.882Z,8.40
2022-12-29T02:14:45.098Z,5.80
2022-12-29T02:17:20.954Z,6.40
2022-12-29T02:20:12.738Z,7.20
2022-12-29T02:23:09.623Z,5.65
2022-12-29T02:26:02.621Z,6.43
2022-12-29T02:29:17.155Z,4.60
2022-12-29T02:31:56.010Z,5.65
2022-12-29T02:34:31.367Z,6.03
2022-12-29T02:37:21.305Z,3.88
2022-12-29T02:40:07.734Z,3.97
2022-12-29T02:42:42.795Z,4.85
2022-12-29T02:45:30.162Z,4.82
2022-12-29T02:48:09.693Z,4.57
2022-12-29T02:50:48.325Z,4.57
2022-12-29T02:53:17.219Z,3.53
2022-12-29T02:55:50.991Z,4.15
2022-12-29T02:58:21.192Z,3.15
2022-12-29T03:01:04.550Z,3.33
2022-12-29T03:03:53.266Z,4.22
2022-12-29T03:06:36.563Z,5.45
2022-12-29T03:09:20.740Z,3.15
2022-12-29T03:12:14.448Z,2.92
2022-12-29T03:15:17.728Z,4.05
2022-12-29T03:18:31.245Z,3.72
2022-12-29T03:21:19.670Z,4.90
2022-12-29T03:23:48.710Z,5.05
2022-12-29T03:26:19.496Z,2.67
2022-12-29T03:28:51.472Z,3.97
2022-12-29T03:31:22.824Z,4.53
2022-12-29T03:33:49.989Z,3.65
2022-12-29T03:36:32.128Z,3.83
2022-12-29T03:39:04.269Z,3.25
2022-12-29T03:41:33.080Z,4.25
2022-12-29T03:44:02.352Z,2.40
2022-12-29T03:46:29.746Z,3.53
2022-12-29T03:48:57.469Z,2.50
2022-12-29T03:51:25.271Z,2.70
2022-12-29T03:53:52.763Z,3.75
2022-12-29T03:56:19.778Z,2.50
2022-12-29T03:58:48.269Z,5.60
2022-12-29T04:01:20.016Z,3.30
2022-12-29T04:03:46.948Z,3.78
2022-12-29T04:06:13.600Z,2.67
2022-12-29T04:08:55.118Z,2.00
2022-12-29T04:11:26.117Z,2.35
2022-12-29T04:16:25.483Z,3.13
2022-12-29T04:18:52.443Z,2.90
2022-12-29T04:21:19.184Z,2.72
2022-12-29T04:23:45.913Z,3.22
2022-12-29T04:26:13.564Z,1.48
2022-12-29T04:29:01.629Z,2.72
2022-12-29T04:31:53.565Z,2.10
2022-12-29T04:34:20.465Z,2.33
2022-12-29T04:36:48.414Z,2.83
2022-12-29T04:39:15.132Z,3.17
2022-12-29T04:41:42.859Z,4.45
2022-12-29T04:44:15.607Z,1.77
2022-12-29T04:47:17.809Z,2.45
2022-12-29T04:50:05.928Z,2.92
2022-12-29T04:52:53.471Z,2.10
2022-12-29T04:55:21.040Z,3.47
2022-12-29T04:57:47.705Z,2.67
2022-12-29T05:00:18.672Z,2.35
2022-12-29T05:02:46.115Z,2.30
2022-12-29T05:05:12.998Z,2.50
2022-12-29T05:07:43.320Z,2.20
2022-12-29T05:10:11.155Z,2.35
2022-12-29T05:12:40.086Z,3.20
2022-12-29T05:15:08.906Z,2.13
2022-12-29T05:17:35.936Z,2.28
2022-12-29T05:20:03.607Z,2.17
2022-12-29T05:22:30.629Z,1.40
2022-12-29T05:24:57.411Z,2.17
2022-12-29T05:27:24.484Z,2.03
2022-12-29T05:30:00.180Z,1.75
2022-12-29T05:32:27.581Z,2.70
2022-12-29T05:34:55.320Z,1.63
2022-12-29T05:37:23.377Z,3.60
2022-12-29T05:39:50.090Z,2.88
2022-12-29T05:42:16.754Z,2.50
2022-12-29T05:44:54.697Z,2.50
2022-12-29T05:47:32.604Z,2.08
2022-12-29T05:50:28.793Z,3.20
2022-12-29T05:53:14.667Z,1.65
2022-12-29T05:55:48.481Z,2.00
2022-12-29T05:58:19.579Z,3.10
2022-12-29T06:00:48.064Z,2.95
2022-12-29T06:03:14.802Z,1.88
2022-12-29T06:05:42.061Z,3.38
2022-12-29T06:08:08.708Z,2.50
2022-12-29T06:10:35.420Z,1.65
2022-12-29T06:13:06.512Z,1.63
2022-12-29T06:15:36.900Z,3.28
2022-12-29T06:18:06.663Z,1.80
2022-12-29T06:20:34.479Z,1.38
2022-12-29T06:23:03.470Z,3.30
2022-12-29T06:25:33.110Z,3.58
2022-12-29T06:27:59.757Z,2.03
2022-12-29T06:30:26.588Z,2.10
2022-12-29T06:32:53.293Z,2.35
2022-12-29T06:35:20.165Z,1.42
2022-12-29T06:37:50.027Z,2.83
2022-12-29T06:40:17.277Z,2.35
2022-12-29T06:43:19.217Z,2.50
2022-12-29T06:46:21.823Z,2.05
2022-12-29T06:48:48.499Z,1.85
2022-12-29T06:51:15.025Z,1.92
2022-12-29T06:53:41.563Z,1.20
2022-12-29T06:56:09.424Z,4.40
2022-12-29T06:58:35.992Z,2.75
2022-12-29T07:01:02.742Z,1.60
2022-12-29T07:03:29.608Z,1.92
2022-12-29T07:05:56.227Z,2.60
2022-12-29T07:08:22.782Z,4.22
2022-12-29T07:10:49.881Z,3.80
2022-12-29T07:13:16.462Z,2.08
2022-12-29T07:15:43.063Z,3.60
2022-12-29T07:18:11.011Z,1.75
2022-12-29T07:20:37.507Z,2.17
2022-12-29T07:23:04.115Z,3.00
2022-12-29T07:25:30.760Z,2.55
2022-12-29T07:27:57.282Z,3.45
2022-12-29T07:30:23.929Z,3.33
2022-12-29T07:32:50.620Z,2.95
2022-12-29T07:35:17.577Z,2.65
2022-12-29T07:37:44.337Z,2.20
2022-12-29T07:40:11.745Z,1.90
2022-12-29T07:42:38.330Z,3.08
2022-12-29T07:45:10.136Z,2.17
2022-12-29T07:47:51.414Z,2.65
2022-12-29T07:50:18.491Z,4.07
2022-12-29T07:52:45.756Z,1.58
2022-12-29T07:55:12.363Z,2.13
2022-12-29T07:57:39.395Z,2.28
2022-12-29T08:00:06.546Z,3.05
2022-12-29T08:02:39.178Z,4.05
2022-12-29T08:05:06.376Z,34.53
2022-12-29T08:07:32.971Z,10.75
2022-12-29T08:09:59.864Z,26.67
2022-12-29T08:12:26.783Z,4.47
2022-12-29T08:14:53.489Z,7.85
2022-12-29T08:17:20.811Z,6.03
2022-12-29T08:19:47.597Z,7.50
2022-12-29T08:22:15.166Z,5.43
2022-12-29T08:24:41.816Z,7.95
2022-12-29T08:27:16.101Z,4.18
2022-12-29T08:29:46.476Z,5.28
2022-12-29T08:32:12.998Z,8.60
2022-12-29T08:34:39.716Z,6.60
2022-12-29T08:37:06.565Z,5.72
2022-12-29T08:39:33.233Z,6.30
2022-12-29T08:42:00.702Z,3.95
2022-12-29T08:44:28.305Z,3.40
2022-12-29T08:46:54.963Z,2.75
2022-12-29T08:49:21.668Z,6.15
2022-12-29T08:51:48.807Z,3.20
2022-12-29T08:54:15.371Z,4.10
2022-12-29T08:56:41.992Z,4.25
2022-12-29T08:59:09.495Z,2.63
2022-12-29T09:01:41.375Z,2.92
2022-12-29T09:04:17.437Z,2.83
2022-12-29T09:06:45.606Z,6.80
2022-12-29T09:09:12.543Z,6.28
2022-12-29T09:11:39.503Z,3.80
2022-12-29T09:14:06.281Z,4.28
2022-12-29T09:16:33.143Z,2.97
2022-12-29T09:19:00.690Z,3.78
2022-12-29T09:21:27.299Z,2.42
2022-12-29T09:23:53.829Z,4.53
2022-12-29T09:26:20.412Z,4.00
2022-12-29T09:28:48.500Z,3.05
2022-12-29T09:31:15.497Z,4.55
2022-12-29T09:33:42.106Z,3.40
2022-12-29T09:36:09.570Z,4.50
2022-12-29T09:38:36.747Z,5.43
2022-12-29T09:41:14.715Z,3.63
2022-12-29T09:43:53.691Z,4.28
2022-12-29T09:46:33.330Z,4.47
2022-12-29T09:49:09.343Z,6.30
2022-12-29T09:51:39.141Z,7.22
2022-12-29T09:54:23.052Z,4.68
2022-12-29T09:56:50.355Z,3.65
2022-12-29T09:59:20.352Z,7.10
2022-12-29T10:01:59.740Z,3.22
2022-12-29T10:04:29.805Z,5.75
2022-12-29T10:07:28.625Z,6.53
2022-12-29T10:10:02.247Z,4.15
2022-12-29T10:12:44.189Z,6.50
2022-12-29T10:15:35.400Z,4.13
2022-12-29T10:18:15.446Z,4.43
2022-12-29T10:21:02.512Z,6.28
2022-12-29T10:23:33.644Z,3.53
2022-12-29T10:26:02.222Z,7.35
2022-12-29T10:28:44.901Z,4.60
2022-12-29T10:31:20.943Z,4.03
2022-12-29T10:33:55.078Z,4.60
2022-12-29T10:36:30.880Z,5.25
2022-12-29T10:39:14.894Z,4.22
2022-12-29T10:41:47.180Z,6.07
2022-12-29T10:44:16.687Z,7.15
2022-12-29T10:46:44.217Z,5.25
2022-12-29T10:49:21.490Z,4.72
2022-12-29T10:51:52.871Z,6.38
2022-12-29T10:54:24.618Z,5.93
2022-12-29T10:56:57.159Z,6.00
2022-12-29T10:59:31.261Z,6.70
2022-12-29T11:02:12.813Z,4.47
2022-12-29T11:04:54.001Z,4.72
2022-12-29T11:07:26.915Z,5.85
2022-12-29T11:09:55.029Z,4.57
2022-12-29T11:12:28.430Z,4.95
2022-12-29T11:15:08.566Z,6.70
2022-12-29T11:17:57.288Z,4.60
2022-12-29T11:20:38.516Z,4.72
2022-12-29T11:23:25.942Z,4.50
2022-12-29T11:26:11.265Z,6.45
2022-12-29T11:31:09.563Z,4.57
2022-12-29T11:33:38.257Z,5.55
2022-12-29T11:36:13.082Z,4.05
2022-12-29T11:41:07.876Z,4.35
2022-12-29T11:43:38.684Z,5.63
2022-12-29T11:46:07.472Z,5.10
2022-12-29T11:48:41.561Z,3.97
2022-12-29T11:51:08.979Z,4.20
2022-12-29T11:53:40.344Z,3.03
2022-12-29T11:56:11.860Z,5.65
2022-12-29T11:58:39.447Z,4.20
2022-12-29T12:01:29.698Z,4.47
2022-12-29T12:04:13.102Z,5.88
2022-12-29T12:06:47.219Z,4.50
2022-12-29T12:09:24.326Z,3.53
2022-12-29T12:11:54.837Z,3.88
2022-12-29T12:14:24.486Z,3.45
2022-12-29T12:17:16.130Z,3.53
2022-12-29T12:19:48.492Z,3.53
2022-12-29T12:22:37.711Z,2.03
2022-12-29T12:25:14.305Z,4.28
2022-12-29T12:27:50.301Z,3.05
2022-12-29T12:30:25.737Z,2.95
2022-12-29T12:33:06.491Z,4.50
2022-12-29T12:35:43.068Z,3.72
2022-12-29T12:38:26.078Z,4.80
2022-12-29T12:41:16.819Z,3.53
2022-12-29T12:43:52.804Z,1.95
2022-12-29T12:46:50.739Z,2.58
2022-12-29T12:49:55.068Z,2.38
2022-12-29T12:52:44.890Z,2.58
2022-12-29T12:55:49.027Z,3.90
2022-12-29T12:58:33.255Z,2.67
2022-12-29T13:01:02.486Z,4.60
2022-12-29T13:03:53.020Z,3.60
2022-12-29T13:06:35.327Z,1.58
2022-12-29T13:09:10.998Z,2.08
2022-12-29T13:11:55.151Z,2.13
2022-12-29T13:14:24.971Z,3.58
2022-12-29T13:17:15.726Z,1.70
2022-12-29T13:19:48.469Z,5.15
2022-12-29T13:22:24.804Z,2.55
2022-12-29T13:24:57.524Z,2.53
2022-12-29T13:27:37.565Z,3.20
2022-12-29T13:30:19.345Z,2.63
2022-12-29T13:33:02.077Z,3.28
2022-12-29T13:35:35.149Z,2.58
2022-12-29T13:38:12.589Z,1.83
2022-12-29T13:40:49.636Z,1.55
2022-12-29T13:43:16.928Z,2.85
2022-12-29T13:45:45.241Z,2.90
2022-12-29T13:48:25.391Z,2.72
2022-12-29T13:50:56.267Z,3.03
2022-12-29T13:53:50.402Z,1.73
2022-12-29T13:56:22.192Z,1.45
2022-12-29T13:58:57.346Z,2.22
2022-12-29T14:01:30.802Z,2.95
2022-12-29T14:04:01.818Z,2.58
2022-12-29T14:06:33.790Z,1.90
2022-12-29T14:09:08.207Z,1.90
2022-12-29T14:11:37.053Z,2.30
2022-12-29T14:14:29.231Z,1.70
2022-12-29T14:17:14.494Z,1.70
2022-12-29T14:19:44.563Z,2.17
2022-12-29T14:22:12.132Z,1.88
2022-12-29T14:24:43.874Z,1.98
2022-12-29T14:27:10.380Z,1.10
2022-12-29T14:29:40.605Z,1.63
2022-12-29T14:32:25.275Z,1.67
2022-12-29T14:34:53.008Z,2.03
2022-12-29T14:37:31.053Z,1.80
2022-12-29T14:40:18.996Z,2.22
2022-12-29T14:42:46.764Z,1.92
2022-12-29T14:45:13.702Z,1.60
2022-12-29T14:47:42.231Z,2.85
2022-12-29T14:50:13.544Z,2.28
2022-12-29T14:52:49.934Z,2.05
2022-12-29T14:55:16.484Z,1.95
2022-12-29T14:57:45.517Z,1.88
2022-12-29T15:00:18.636Z,0.75
2022-12-29T15:02:48.907Z,2.08
2022-12-29T15:05:38.714Z,1.63
2022-12-29T15:08:06.265Z,2.10
2022-12-29T15:10:38.350Z,1.00
2022-12-29T15:13:06.986Z,1.38
2022-12-29T15:15:38.526Z,1.75
2022-12-29T15:18:34.661Z,1.52
2022-12-29T15:21:06.224Z,1.48
2022-12-29T15:23:38.419Z,0.93
2022-12-29T15:26:09.372Z,1.58
2022-12-29T15:28:43.053Z,1.67
2022-12-29T15:31:16.164Z,1.10
2022-12-29T15:33:45.188Z,1.45
2022-12-29T15:36:15.184Z,1.45
2022-12-29T15:38:41.822Z,1.33
2022-12-29T15:41:30.769Z,1.92
2022-12-29T15:44:15.459Z,2.50
2022-12-29T15:46:42.124Z,1.40
2022-12-29T15:49:09.557Z,1.45
2022-12-29T15:51:39.327Z,1.08
2022-12-29T15:54:16.025Z,1.35
2022-12-29T15:56:42.957Z,1.48
2022-12-29T15:59:29.785Z,1.42
2022-12-29T16:01:57.948Z,2.08
2022-12-29T16:04:43.307Z,1.40
2022-12-29T16:07:35.787Z,1.40
2022-12-29T16:10:06.333Z,1.38
2022-12-29T16:12:37.693Z,0.80
2022-12-29T16:15:06.057Z,1.05
2022-12-29T16:17:35.908Z,1.13
2022-12-29T16:20:06.621Z,1.25
2022-12-29T16:22:44.779Z,0.90
2022-12-29T16:25:18.351Z,1.70
2022-12-29T16:27:45.150Z,1.42
2022-12-29T16:30:33.105Z,1.00
2022-12-29T16:33:02.744Z,1.38
2022-12-29T16:35:47.301Z,1.63
2022-12-29T16:38:16.575Z,1.55
2022-12-29T16:40:57.498Z,1.30
2022-12-29T16:43:42.780Z,1.95
2022-12-29T16:46:19.779Z,0.70
2022-12-29T16:48:50.468Z,0.60
2022-12-29T16:51:23.144Z,1.02
2022-12-29T16:53:52.713Z,1.98
2022-12-29T16:56:23.127Z,1.50
2022-12-29T16:59:00.388Z,1.27
2022-12-29T17:01:27.372Z,0.90
2022-12-29T17:03:55.904Z,1.25
2022-12-29T17:06:23.475Z,1.45
2022-12-29T17:08:50.836Z,1.15
2022-12-29T17:11:46.113Z,0.50
2022-12-29T17:14:21.044Z,0.70
2022-12-29T17:16:48.529Z,0.75
2022-12-29T17:19:30.308Z,1.75
2022-12-29T17:21:56.923Z,1.77
2022-12-29T17:24:23.521Z,0.45
2022-12-29T17:26:52.380Z,1.38
2022-12-29T17:29:23.593Z,1.00
2022-12-29T17:31:50.238Z,2.30
2022-12-29T17:34:16.991Z,1.08
2022-12-29T17:36:43.876Z,1.48
2022-12-29T17:39:10.493Z,1.35
2022-12-29T17:41:37.505Z,1.05
2022-12-29T17:44:05.928Z,0.63
2022-12-29T17:46:33.762Z,1.35
2022-12-29T17:49:01.047Z,0.60
2022-12-29T17:51:27.730Z,1.13
2022-12-29T17:53:54.369Z,1.00
2022-12-29T17:56:20.993Z,0.70
2022-12-29T17:58:48.789Z,1.60
2022-12-29T18:01:15.583Z,0.47
2022-12-29T18:03:42.323Z,0.77
2022-12-29T18:06:11.621Z,0.93
2022-12-29T18:08:39.780Z,0.50
2022-12-29T18:11:22.502Z,0.93
2022-12-29T18:13:49.228Z,1.05
2022-12-29T18:16:17.703Z,0.43
2022-12-29T18:18:45.401Z,0.85
2022-12-29T18:21:20.234Z,0.70
2022-12-29T18:23:48.038Z,1.40
2022-12-29T18:26:28.135Z,1.80
2022-12-29T18:28:57.162Z,1.08
2022-12-29T18:31:29.326Z,0.55
2022-12-29T18:33:58.267Z,1.05
2022-12-29T18:36:25.342Z,1.38
2022-12-29T18:38:53.941Z,1.42
2022-12-29T18:41:29.739Z,2.05
2022-12-29T18:43:57.376Z,1.25
2022-12-29T18:46:24.612Z,0.93
2022-12-29T18:48:52.124Z,1.33
2022-12-29T18:51:21.137Z,1.90
2022-12-29T18:53:47.827Z,2.45
2022-12-29T18:56:14.654Z,1.27
2022-12-29T18:58:41.994Z,2.67
2022-12-29T19:01:19.624Z,1.15
2022-12-29T19:03:46.424Z,1.42
2022-12-29T19:06:12.966Z,0.88
2022-12-29T19:08:39.696Z,1.15
2022-12-29T19:11:06.302Z,1.05
2022-12-29T19:13:33.726Z,0.88
2022-12-29T19:16:00.453Z,2.25
2022-12-29T19:18:46.350Z,0.77
2022-12-29T19:21:16.230Z,0.82
2022-12-29T19:23:43.118Z,2.30
2022-12-29T19:26:27.448Z,1.63
2022-12-29T19:28:54.066Z,0.63
2022-12-29T19:31:20.602Z,1.40
2022-12-29T19:33:47.165Z,0.77
2022-12-29T19:36:17.889Z,2.05
2022-12-29T19:38:45.995Z,2.80
2022-12-29T19:41:13.636Z,1.63
2022-12-29T19:43:40.513Z,1.75
2022-12-29T19:46:11.771Z,2.22
2022-12-29T19:48:38.459Z,1.92
2022-12-29T19:51:07.723Z,1.05
2022-12-29T19:53:34.992Z,1.45
2022-12-29T19:56:05.064Z,2.05
2022-12-29T19:58:33.200Z,3.28
2022-12-29T20:01:06.481Z,1.67
2022-12-29T20:03:33.895Z,1.33
2022-12-29T20:06:00.542Z,1.17
2022-12-29T20:08:27.318Z,2.60
2022-12-29T20:11:02.502Z,3.83
2022-12-29T20:16:00.535Z,2.05
2022-12-29T20:18:29.405Z,4.68
2022-12-29T20:21:07.648Z,1.92
2022-12-29T20:23:38.666Z,2.22
2022-12-29T20:26:06.148Z,1.90
2022-12-29T20:28:32.881Z,2.90
2022-12-29T20:31:03.860Z,2.72
2022-12-29T20:33:31.846Z,1.20
2022-12-29T20:36:07.278Z,1.38
2022-12-29T20:38:34.116Z,1.15
2022-12-29T20:41:00.709Z,1.73
2022-12-29T20:43:27.394Z,1.27
2022-12-29T20:45:53.961Z,1.60
2022-12-29T20:48:20.674Z,2.70
2022-12-29T20:50:47.334Z,1.40
2022-12-29T20:53:13.957Z,1.40
2022-12-29T20:55:41.544Z,2.65
2022-12-29T20:58:24.755Z,2.38
2022-12-29T21:00:52.445Z,1.95
2022-12-29T21:03:19.584Z,3.65
2022-12-29T21:05:46.299Z,2.50
2022-12-29T21:08:12.858Z,2.35
2022-12-29T21:10:39.617Z,2.05
2022-12-29T21:13:06.161Z,3.80
2022-12-29T21:15:34.310Z,1.98
2022-12-29T21:18:00.895Z,3.72
2022-12-29T21:20:32.112Z,1.80
2022-12-29T21:23:00.538Z,2.75
2022-12-29T21:25:39.006Z,2.08
2022-12-29T21:28:08.275Z,3.60
2022-12-29T21:30:35.866Z,1.52
2022-12-29T21:33:03.468Z,1.35
2022-12-29T21:35:34.421Z,3.13
2022-12-29T21:38:01.017Z,1.83
2022-12-29T21:40:27.633Z,2.50
2022-12-29T21:42:54.182Z,2.67
2022-12-29T21:45:27.500Z,1.15
2022-12-29T21:48:17.850Z,1.33
2022-12-29T21:51:04.602Z,2.72
2022-12-29T21:53:40.974Z,2.50
2022-12-29T21:56:14.405Z,1.88
2022-12-29T21:59:02.263Z,2.15
2022-12-29T22:01:50.078Z,3.30
2022-12-29T22:04:37.702Z,1.92
2022-12-29T22:07:24.996Z,0.77
2022-12-29T22:10:10.255Z,2.58
2022-12-29T22:12:55.989Z,1.63
2022-12-29T22:15:22.697Z,1.10
2022-12-29T22:17:51.653Z,2.53
2022-12-29T22:20:19.276Z,5.05
2022-12-29T22:22:46.080Z,3.13
2022-12-29T22:25:13.027Z,2.25
2022-12-29T22:27:39.705Z,1.50
2022-12-29T22:30:07.677Z,1.88
2022-12-29T22:32:34.623Z,2.15
2022-12-29T22:35:07.250Z,2.65
2022-12-29T22:37:34.952Z,6.07
2022-12-29T22:40:04.572Z,2.85
2022-12-29T22:42:31.535Z,2.67
2022-12-29T22:44:58.158Z,1.05
2022-12-29T22:47:26.235Z,1.42
2022-12-29T22:49:52.947Z,3.13
2022-12-29T22:52:19.667Z,3.20
2022-12-29T22:54:46.556Z,2.13
2022-12-29T22:57:13.553Z,2.60
2022-12-29T22:59:40.318Z,1.38
2022-12-29T23:02:09.886Z,4.93
2022-12-29T23:07:23.844Z,2.42
2022-12-29T23:09:50.412Z,2.35
2022-12-29T23:12:17.581Z,3.22
2022-12-29T23:14:44.429Z,2.00
2022-12-29T23:17:11.324Z,1.92
2022-12-29T23:19:37.895Z,2.67
2022-12-29T23:22:04.760Z,2.60
2022-12-29T23:24:31.306Z,0.80
2022-12-29T23:26:58.109Z,1.60
2022-12-29T23:29:24.976Z,1.83
2022-12-29T23:31:51.842Z,1.65
2022-12-29T23:34:18.582Z,2.63
2022-12-29T23:36:46.622Z,1.73
2022-12-29T23:39:18.413Z,0.95
2022-12-29T23:41:45.008Z,2.47
2022-12-29T23:44:11.589Z,1.88
2022-12-29T23:46:38.244Z,0.82
2022-12-29T23:49:04.771Z,3.42
2022-12-29T23:51:31.374Z,2.35
2022-12-29T23:53:57.995Z,1.63
2022-12-29T23:56:26.218Z,3.05
2022-12-29T23:58:52.984Z,1.63
